Rogers, AR (72756)

4:35 AM CDT on September 16, 2014 (GMT -0500)
Little Flock | Change Station
CLOSE
Current Station
Personal Weather Station
Location: Little Flock, AR
Elevation: 1293 ft
Nearby Weather Stations

Elev 1293 ft 36.39 °N, 94.14 °W | Updated 53 seconds ago

Overcast
Overcast
68.1 °F
Feels Like 68.1 °F
N
0.0
Wind Variable Wind from West
Gusts 0.0 mph

Today
High -- | Low -- °F
--% Chance of Precip.
Yesterday
High -- | Low -- °F
Precip. -- in
6:59 AM 7:21 PM
Waning Gibbous, 47% visible
Pressure 30.14 in
Visibility 8.0 miles
Clouds Mostly Cloudy 900 ft
Overcast 1500 ft
Dew Point 67 °F
Humidity 96%
Rainfall 0.00 in
Snow Depth Not available.
UV 0 out of 12
Pollen 8.60 out of 12
Air Quality Not available.
Flu Activity Not available.
METAR KROG 160857Z AUTO 33003KT 8SM BKN009 OVC015 21/19 A3018 RMK AO2 CIG 007V011 SLP205 T02060189 58001

More Conditions Fewer Conditions

Pressure 30.14 in
Visibility 8.0 miles
Clouds Mostly Cloudy 900 ft
Overcast 1500 ft
Dew Point 67 °F
Humidity 96%
Rainfall 0.00 in
Snow Depth Not available.
UV 0 out of 12
Pollen 8.60 out of 12
Air Quality Not available.
Flu Activity Not available.
METAR KROG 160857Z AUTO 33003KT 8SM BKN009 OVC015 21/19 A3018 RMK AO2 CIG 007V011 SLP205 T02060189 58001

More Conditions Fewer Conditions

10-Day Weather Forecast

Almanac

Astronomy

Sep. 16, 2014 Rise Set
Actual Time 6:59 AM CDT 7:21 PM CDT
Civil Twilight 6:33 AM CDT 7:47 PM CDT
Nautical Twilight 6:03 AM CDT 8:17 PM CDT
Astronomical Twilight 5:32 AM CDT 8:48 PM CDT
Moon 12:17 AM CDT 2:38 PM CDT
Length of Visible Light 13h 14m
Length of Day
12h 22m
Tomorrow will be 2m 17s shorter.
Waning Gibbous, 47% of the Moon is Illuminated
Today
Waning Gibbous
Sep 24
New
Oct 1
First Quarter
Oct 8
Full
Oct 15
Last Quarter

Today's Extremes

State Highs State Lows

Community

WunderPhotos

Upload Photos

1,753,714 photos uploaded!

WunderBlogs® & News

Nearby

Snow Depth

Station Depth Elevation
No new snow has been reported.

Earthquake Activity

City Distance Mag. Time & Date
No recent earthquake activity has been reported nearby.
Minimum magnitude displayed is 2.5.

Coastal Water Temperatures

Place Temperature
No Stations Reporting

Nearby Weather Stations